sensor_id;sensor_type;location;lat;lon;timestamp;temperature;humidity
64638;HTU21D;51049;45.046;38.950;2023-02-28T00:00:47;13.67;40.57
64638;HTU21D;51049;45.046;38.950;2023-02-28T00:03:17;13.66;40.60
64638;HTU21D;51049;45.046;38.950;2023-02-28T00:05:43;13.66;40.62
64638;HTU21D;51049;45.046;38.950;2023-02-28T00:08:09;13.67;40.60
64638;HTU21D;51049;45.046;38.950;2023-02-28T00:10:36;13.67;40.62
64638;HTU21D;51049;45.046;38.950;2023-02-28T00:13:05;13.67;40.65
64638;HTU21D;51049;45.046;38.950;2023-02-28T00:15:37;13.65;40.68
64638;HTU21D;51049;45.046;38.950;2023-02-28T00:18:03;13.65;40.68
64638;HTU21D;51049;45.046;38.950;2023-02-28T00:20:38;13.66;40.70
64638;HTU21D;51049;45.046;38.950;2023-02-28T00:23:04;13.65;40.70
64638;HTU21D;51049;45.046;38.950;2023-02-28T00:25:36;13.64;40.73
64638;HTU21D;51049;45.046;38.950;2023-02-28T00:28:24;13.62;40.75
64638;HTU21D;51049;45.046;38.950;2023-02-28T00:30:56;13.61;40.75
64638;HTU21D;51049;45.046;38.950;2023-02-28T00:36:33;13.61;40.78
64638;HTU21D;51049;45.046;38.950;2023-02-28T00:39:04;13.61;40.81
64638;HTU21D;51049;45.046;38.950;2023-02-28T00:41:38;13.60;40.83
64638;HTU21D;51049;45.046;38.950;2023-02-28T00:44:12;13.61;40.84
64638;HTU21D;51049;45.046;38.950;2023-02-28T00:46:50;13.61;40.88
64638;HTU21D;51049;45.046;38.950;2023-02-28T00:49:17;13.59;40.89
64638;HTU21D;51049;45.046;38.950;2023-02-28T00:51:43;13.59;40.90
64638;HTU21D;51049;45.046;38.950;2023-02-28T00:54:10;13.61;40.89
64638;HTU21D;51049;45.046;38.950;2023-02-28T00:56:39;13.63;40.90
64638;HTU21D;51049;45.046;38.950;2023-02-28T00:59:05;13.63;40.91
64638;HTU21D;51049;45.046;38.950;2023-02-28T01:01:33;13.61;40.92
64638;HTU21D;51049;45.046;38.950;2023-02-28T01:04:14;13.61;40.93
64638;HTU21D;51049;45.046;38.950;2023-02-28T01:06:51;13.60;40.96
64638;HTU21D;51049;45.046;38.950;2023-02-28T01:09:23;13.59;40.97
64638;HTU21D;51049;45.046;38.950;2023-02-28T01:11:56;13.59;40.97
64638;HTU21D;51049;45.046;38.950;2023-02-28T01:14:26;13.58;41.00
64638;HTU21D;51049;45.046;38.950;2023-02-28T01:17:01;13.53;41.03
64638;HTU21D;51049;45.046;38.950;2023-02-28T01:19:27;13.52;41.07
64638;HTU21D;51049;45.046;38.950;2023-02-28T01:21:54;13.47;41.10
64638;HTU21D;51049;45.046;38.950;2023-02-28T01:24:20;13.46;41.13
64638;HTU21D;51049;45.046;38.950;2023-02-28T01:26:46;13.43;41.18
64638;HTU21D;51049;45.046;38.950;2023-02-28T01:29:12;13.44;41.21
64638;HTU21D;51049;45.046;38.950;2023-02-28T01:31:38;13.41;41.21
64638;HTU21D;51049;45.046;38.950;2023-02-28T01:34:09;13.39;41.23
64638;HTU21D;51049;45.046;38.950;2023-02-28T01:36:41;13.37;41.27
64638;HTU21D;51049;45.046;38.950;2023-02-28T01:39:10;13.35;41.32
64638;HTU21D;51049;45.046;38.950;2023-02-28T01:41:39;13.32;41.38
64638;HTU21D;51049;45.046;38.950;2023-02-28T01:47:36;13.24;41.45
64638;HTU21D;51049;45.046;38.950;2023-02-28T01:50:24;13.24;41.49
64638;HTU21D;51049;45.046;38.950;2023-02-28T01:53:07;13.30;41.45
64638;HTU21D;51049;45.046;38.950;2023-02-28T01:55:55;13.29;41.45
64638;HTU21D;51049;45.046;38.950;2023-02-28T01:58:26;13.34;41.43
64638;HTU21D;51049;45.046;38.950;2023-02-28T02:00:55;13.35;41.42
64638;HTU21D;51049;45.046;38.950;2023-02-28T02:03:25;13.38;41.41
64638;HTU21D;51049;45.046;38.950;2023-02-28T02:06:06;13.43;41.41
64638;HTU21D;51049;45.046;38.950;2023-02-28T02:08:39;13.46;41.39
64638;HTU21D;51049;45.046;38.950;2023-02-28T02:11:11;13.50;41.36
64638;HTU21D;51049;45.046;38.950;2023-02-28T02:17:02;13.52;41.33
64638;HTU21D;51049;45.046;38.950;2023-02-28T02:25:42;13.50;41.34
64638;HTU21D;51049;45.046;38.950;2023-02-28T02:28:50;13.48;41.33
64638;HTU21D;51049;45.046;38.950;2023-02-28T02:34:50;13.45;41.37
64638;HTU21D;51049;45.046;38.950;2023-02-28T02:44:23;13.30;41.53
64638;HTU21D;51049;45.046;38.950;2023-02-28T02:47:15;13.26;41.56
64638;HTU21D;51049;45.046;38.950;2023-02-28T02:49:57;13.24;41.58
64638;HTU21D;51049;45.046;38.950;2023-02-28T02:52:38;13.18;41.61
64638;HTU21D;51049;45.046;38.950;2023-02-28T02:55:08;13.11;41.65
64638;HTU21D;51049;45.046;38.950;2023-02-28T03:00:26;12.97;41.74
64638;HTU21D;51049;45.046;38.950;2023-02-28T03:02:56;12.91;41.80
64638;HTU21D;51049;45.046;38.950;2023-02-28T03:05:41;12.84;41.85
64638;HTU21D;51049;45.046;38.950;2023-02-28T03:08:11;12.75;41.91
64638;HTU21D;51049;45.046;38.950;2023-02-28T03:10:46;12.70;41.98
64638;HTU21D;51049;45.046;38.950;2023-02-28T03:16:49;12.69;42.03
64638;HTU21D;51049;45.046;38.950;2023-02-28T03:19:45;12.74;41.98
64638;HTU21D;51049;45.046;38.950;2023-02-28T03:22:50;12.75;41.92
64638;HTU21D;51049;45.046;38.950;2023-02-28T03:28:47;12.75;41.94
64638;HTU21D;51049;45.046;38.950;2023-02-28T03:31:32;12.76;41.93
64638;HTU21D;51049;45.046;38.950;2023-02-28T03:34:13;12.77;41.94
64638;HTU21D;51049;45.046;38.950;2023-02-28T03:37:43;12.75;41.94
64638;HTU21D;51049;45.046;38.950;2023-02-28T03:40:02;12.76;41.94
64638;HTU21D;51049;45.046;38.950;2023-02-28T03:42:48;12.79;41.94
64638;HTU21D;51049;45.046;38.950;2023-02-28T03:45:26;12.79;41.93
64638;HTU21D;51049;45.046;38.950;2023-02-28T03:48:00;12.79;41.94
64638;HTU21D;51049;45.046;38.950;2023-02-28T03:51:15;12.79;41.95
64638;HTU21D;51049;45.046;38.950;2023-02-28T03:54:02;12.80;41.96
64638;HTU21D;51049;45.046;38.950;2023-02-28T03:57:08;12.79;41.94
64638;HTU21D;51049;45.046;38.950;2023-02-28T04:02:46;12.72;42.00
64638;HTU21D;51049;45.046;38.950;2023-02-28T04:08:07;12.76;42.04
64638;HTU21D;51049;45.046;38.950;2023-02-28T04:10:36;12.80;42.03
64638;HTU21D;51049;45.046;38.950;2023-02-28T04:13:13;12.86;41.99
64638;HTU21D;51049;45.046;38.950;2023-02-28T04:15:46;12.92;41.97
64638;HTU21D;51049;45.046;38.950;2023-02-28T04:18:24;13.00;41.91
64638;HTU21D;51049;45.046;38.950;2023-02-28T04:21:03;13.06;41.90
64638;HTU21D;51049;45.046;38.950;2023-02-28T04:23:35;13.11;41.86
64638;HTU21D;51049;45.046;38.950;2023-02-28T04:26:04;13.16;41.85
64638;HTU21D;51049;45.046;38.950;2023-02-28T04:28:38;13.20;41.82
64638;HTU21D;51049;45.046;38.950;2023-02-28T04:31:11;13.22;41.81
64638;HTU21D;51049;45.046;38.950;2023-02-28T04:33:51;13.30;41.71
64638;HTU21D;51049;45.046;38.950;2023-02-28T04:36:29;13.39;41.68
64638;HTU21D;51049;45.046;38.950;2023-02-28T04:39:29;13.47;41.66
64638;HTU21D;51049;45.046;38.950;2023-02-28T04:42:03;13.51;41.64
64638;HTU21D;51049;45.046;38.950;2023-02-28T04:45:04;13.58;41.62
64638;HTU21D;51049;45.046;38.950;2023-02-28T04:48:03;13.59;41.62
64638;HTU21D;51049;45.046;38.950;2023-02-28T04:50:39;13.59;41.63
64638;HTU21D;51049;45.046;38.950;2023-02-28T04:53:16;13.59;41.66
64638;HTU21D;51049;45.046;38.950;2023-02-28T04:58:34;13.60;41.71
64638;HTU21D;51049;45.046;38.950;2023-02-28T05:01:06;13.63;41.71
64638;HTU21D;51049;45.046;38.950;2023-02-28T05:03:56;13.66;41.68
64638;HTU21D;51049;45.046;38.950;2023-02-28T05:06:24;13.71;41.65
64638;HTU21D;51049;45.046;38.950;2023-02-28T05:09:08;13.75;41.67
64638;HTU21D;51049;45.046;38.950;2023-02-28T05:11:39;13.76;41.68
64638;HTU21D;51049;45.046;38.950;2023-02-28T05:14:17;13.78;41.68
64638;HTU21D;51049;45.046;38.950;2023-02-28T05:16:57;13.79;41.70
64638;HTU21D;51049;45.046;38.950;2023-02-28T05:19:52;13.86;41.71
64638;HTU21D;51049;45.046;38.950;2023-02-28T05:22:19;13.95;41.69
64638;HTU21D;51049;45.046;38.950;2023-02-28T05:25:21;14.03;41.64
64638;HTU21D;51049;45.046;38.950;2023-02-28T05:27:55;14.11;41.58
64638;HTU21D;51049;45.046;38.950;2023-02-28T05:30:26;14.15;41.52
64638;HTU21D;51049;45.046;38.950;2023-02-28T05:35:59;14.22;41.53
64638;HTU21D;51049;45.046;38.950;2023-02-28T05:38:31;14.23;41.54
64638;HTU21D;51049;45.046;38.950;2023-02-28T05:40:59;14.26;41.55
64638;HTU21D;51049;45.046;38.950;2023-02-28T05:43:25;14.34;41.57
64638;HTU21D;51049;45.046;38.950;2023-02-28T05:45:54;14.39;41.53
64638;HTU21D;51049;45.046;38.950;2023-02-28T05:48:23;14.48;41.51
64638;HTU21D;51049;45.046;38.950;2023-02-28T05:50:54;14.54;41.49
64638;HTU21D;51049;45.046;38.950;2023-02-28T05:57:46;14.73;41.45
64638;HTU21D;51049;45.046;38.950;2023-02-28T06:00:21;14.79;41.42
64638;HTU21D;51049;45.046;38.950;2023-02-28T06:02:50;14.83;41.41
64638;HTU21D;51049;45.046;38.950;2023-02-28T06:05:20;14.87;41.39
64638;HTU21D;51049;45.046;38.950;2023-02-28T06:07:47;14.88;41.36
64638;HTU21D;51049;45.046;38.950;2023-02-28T06:10:22;14.86;41.34
64638;HTU21D;51049;45.046;38.950;2023-02-28T06:12:51;14.84;41.39
64638;HTU21D;51049;45.046;38.950;2023-02-28T06:15:20;14.82;41.48
64638;HTU21D;51049;45.046;38.950;2023-02-28T06:18:23;14.80;41.52
64638;HTU21D;51049;45.046;38.950;2023-02-28T06:21:25;14.74;41.54
64638;HTU21D;51049;45.046;38.950;2023-02-28T06:27:53;14.59;41.73
64638;HTU21D;51049;45.046;38.950;2023-02-28T06:33:54;14.42;41.94
64638;HTU21D;51049;45.046;38.950;2023-02-28T06:36:34;14.38;42.03
64638;HTU21D;51049;45.046;38.950;2023-02-28T06:39:40;14.35;42.08
64638;HTU21D;51049;45.046;38.950;2023-02-28T06:42:06;14.29;42.15
64638;HTU21D;51049;45.046;38.950;2023-02-28T06:44:44;14.25;42.26
64638;HTU21D;51049;45.046;38.950;2023-02-28T06:47:15;14.20;42.31
64638;HTU21D;51049;45.046;38.950;2023-02-28T06:49:46;14.13;42.38
64638;HTU21D;51049;45.046;38.950;2023-02-28T06:59:55;13.95;42.74
64638;HTU21D;51049;45.046;38.950;2023-02-28T07:02:27;13.96;42.77
64638;HTU21D;51049;45.046;38.950;2023-02-28T07:09:10;14.00;42.78
64638;HTU21D;51049;45.046;38.950;2023-02-28T07:18:56;14.13;42.87
64638;HTU21D;51049;45.046;38.950;2023-02-28T07:29:00;14.24;43.06
64638;HTU21D;51049;45.046;38.950;2023-02-28T07:31:30;14.29;43.10
64638;HTU21D;51049;45.046;38.950;2023-02-28T07:38:02;14.56;43.03
64638;HTU21D;51049;45.046;38.950;2023-02-28T07:40:35;14.62;43.10
64638;HTU21D;51049;45.046;38.950;2023-02-28T07:43:14;14.69;43.12
64638;HTU21D;51049;45.046;38.950;2023-02-28T07:45:41;14.74;43.13
64638;HTU21D;51049;45.046;38.950;2023-02-28T07:48:13;14.79;43.18
64638;HTU21D;51049;45.046;38.950;2023-02-28T07:51:14;14.83;43.25
64638;HTU21D;51049;45.046;38.950;2023-02-28T07:53:40;14.80;43.29
64638;HTU21D;51049;45.046;38.950;2023-02-28T07:56:26;14.78;43.51
64638;HTU21D;51049;45.046;38.950;2023-02-28T08:09:53;14.96;43.61
64638;HTU21D;51049;45.046;38.950;2023-02-28T08:16:43;14.87;43.86
64638;HTU21D;51049;45.046;38.950;2023-02-28T08:19:09;14.80;44.03
64638;HTU21D;51049;45.046;38.950;2023-02-28T08:21:35;14.79;44.22
64638;HTU21D;51049;45.046;38.950;2023-02-28T08:24:01;14.83;44.35
64638;HTU21D;51049;45.046;38.950;2023-02-28T08:26:28;14.91;44.41
64638;HTU21D;51049;45.046;38.950;2023-02-28T08:28:54;14.94;44.48
64638;HTU21D;51049;45.046;38.950;2023-02-28T08:31:28;14.89;44.61
64638;HTU21D;51049;45.046;38.950;2023-02-28T08:33:55;14.83;44.76
64638;HTU21D;51049;45.046;38.950;2023-02-28T08:36:31;14.79;44.94
64638;HTU21D;51049;45.046;38.950;2023-02-28T08:39:03;14.78;45.09
64638;HTU21D;51049;45.046;38.950;2023-02-28T08:41:45;14.81;45.21
64638;HTU21D;51049;45.046;38.950;2023-02-28T08:44:11;14.82;45.23
64638;HTU21D;51049;45.046;38.950;2023-02-28T08:50:37;14.82;45.32
64638;HTU21D;51049;45.046;38.950;2023-02-28T08:53:06;14.79;45.41
64638;HTU21D;51049;45.046;38.950;2023-02-28T08:55:46;14.78;45.40
64638;HTU21D;51049;45.046;38.950;2023-02-28T08:58:17;14.80;45.47
64638;HTU21D;51049;45.046;38.950;2023-02-28T09:00:43;14.82;45.51
64638;HTU21D;51049;45.046;38.950;2023-02-28T09:03:15;14.79;45.71
64638;HTU21D;51049;45.046;38.950;2023-02-28T09:05:57;14.69;45.95
64638;HTU21D;51049;45.046;38.950;2023-02-28T09:09:00;14.70;46.06
64638;HTU21D;51049;45.046;38.950;2023-02-28T09:11:32;14.65;45.98
64638;HTU21D;51049;45.046;38.950;2023-02-28T09:14:01;14.59;46.19
64638;HTU21D;51049;45.046;38.950;2023-02-28T09:16:52;14.57;46.40
64638;HTU21D;51049;45.046;38.950;2023-02-28T09:19:27;14.60;46.37
64638;HTU21D;51049;45.046;38.950;2023-02-28T09:21:53;14.58;46.44
64638;HTU21D;51049;45.046;38.950;2023-02-28T09:24:20;14.59;46.54
64638;HTU21D;51049;45.046;38.950;2023-02-28T09:26:46;14.58;46.61
64638;HTU21D;51049;45.046;38.950;2023-02-28T09:29:36;14.62;46.76
64638;HTU21D;51049;45.046;38.950;2023-02-28T09:33:18;14.68;46.78
64638;HTU21D;51049;45.046;38.950;2023-02-28T09:43:51;14.96;46.64
64638;HTU21D;51049;45.046;38.950;2023-02-28T09:46:34;14.89;46.71
64638;HTU21D;51049;45.046;38.950;2023-02-28T09:49:19;14.70;46.98
64638;HTU21D;51049;45.046;38.950;2023-02-28T09:51:52;14.56;47.26
64638;HTU21D;51049;45.046;38.950;2023-02-28T09:54:26;14.49;47.38
64638;HTU21D;51049;45.046;38.950;2023-02-28T09:57:36;14.51;47.54
64638;HTU21D;51049;45.046;38.950;2023-02-28T10:06:50;14.32;47.67
64638;HTU21D;51049;45.046;38.950;2023-02-28T10:09:21;14.34;47.86
64638;HTU21D;51049;45.046;38.950;2023-02-28T10:12:04;14.32;47.86
64638;HTU21D;51049;45.046;38.950;2023-02-28T10:14:46;14.29;47.96
64638;HTU21D;51049;45.046;38.950;2023-02-28T10:17:40;14.21;48.22
64638;HTU21D;51049;45.046;38.950;2023-02-28T10:20:32;14.24;48.31
64638;HTU21D;51049;45.046;38.950;2023-02-28T10:23:21;14.38;48.44
64638;HTU21D;51049;45.046;38.950;2023-02-28T10:26:01;14.56;48.24
64638;HTU21D;51049;45.046;38.950;2023-02-28T10:28:34;14.70;48.15
64638;HTU21D;51049;45.046;38.950;2023-02-28T10:31:11;14.68;48.28
64638;HTU21D;51049;45.046;38.950;2023-02-28T10:33:50;14.57;48.46
64638;HTU21D;51049;45.046;38.950;2023-02-28T10:36:21;14.52;48.67
64638;HTU21D;51049;45.046;38.950;2023-02-28T10:38:53;14.54;48.89
64638;HTU21D;51049;45.046;38.950;2023-02-28T10:41:31;14.60;49.05
64638;HTU21D;51049;45.046;38.950;2023-02-28T10:44:32;14.68;49.07
64638;HTU21D;51049;45.046;38.950;2023-02-28T10:47:26;14.73;48.86
64638;HTU21D;51049;45.046;38.950;2023-02-28T10:50:05;14.86;49.05
64638;HTU21D;51049;45.046;38.950;2023-02-28T10:52:42;14.95;49.09
64638;HTU21D;51049;45.046;38.950;2023-02-28T10:55:37;15.06;49.10
64638;HTU21D;51049;45.046;38.950;2023-02-28T10:58:53;15.17;49.17
64638;HTU21D;51049;45.046;38.950;2023-02-28T11:01:46;15.25;49.05
64638;HTU21D;51049;45.046;38.950;2023-02-28T11:13:31;15.31;49.42
64638;HTU21D;51049;45.046;38.950;2023-02-28T11:16:32;15.28;49.59
64638;HTU21D;51049;45.046;38.950;2023-02-28T11:19:01;15.26;49.72
64638;HTU21D;51049;45.046;38.950;2023-02-28T11:39:12;16.03;49.56
64638;HTU21D;51049;45.046;38.950;2023-02-28T11:45:04;16.16;49.76
64638;HTU21D;51049;45.046;38.950;2023-02-28T11:56:32;16.45;49.60
64638;HTU21D;51049;45.046;38.950;2023-02-28T11:59:19;16.47;49.48
64638;HTU21D;51049;45.046;38.950;2023-02-28T12:07:57;16.45;49.42
64638;HTU21D;51049;45.046;38.950;2023-02-28T12:16:54;15.89;49.72
64638;HTU21D;51049;45.046;38.950;2023-02-28T12:24:12;15.25;50.43
64638;HTU21D;51049;45.046;38.950;2023-02-28T12:26:45;15.34;50.06
64638;HTU21D;51049;45.046;38.950;2023-02-28T12:31:55;14.98;50.31
64638;HTU21D;51049;45.046;38.950;2023-02-28T12:34:27;14.81;50.53
64638;HTU21D;51049;45.046;38.950;2023-02-28T12:37:29;14.78;50.92
64638;HTU21D;51049;45.046;38.950;2023-02-28T12:40:00;14.94;50.69
64638;HTU21D;51049;45.046;38.950;2023-02-28T12:42:33;14.81;50.66
64638;HTU21D;51049;45.046;38.950;2023-02-28T12:45:13;14.65;50.85
64638;HTU21D;51049;45.046;38.950;2023-02-28T12:48:12;14.50;51.01
64638;HTU21D;51049;45.046;38.950;2023-02-28T12:50:46;14.33;51.21
64638;HTU21D;51049;45.046;38.950;2023-02-28T13:00:09;13.84;51.72
64638;HTU21D;51049;45.046;38.950;2023-02-28T13:22:59;12.91;52.63
64638;HTU21D;51049;45.046;38.950;2023-02-28T13:28:10;12.62;52.90
64638;HTU21D;51049;45.046;38.950;2023-02-28T13:41:54;12.14;53.24
64638;HTU21D;51049;45.046;38.950;2023-02-28T13:44:39;11.99;53.38
64638;HTU21D;51049;45.046;38.950;2023-02-28T13:48:12;11.79;53.68
64638;HTU21D;51049;45.046;38.950;2023-02-28T13:50:41;11.71;53.67
64638;HTU21D;51049;45.046;38.950;2023-02-28T13:58:35;11.49;53.94
64638;HTU21D;51049;45.046;38.950;2023-02-28T14:11:49;11.04;54.34
64638;HTU21D;51049;45.046;38.950;2023-02-28T14:17:06;10.88;54.44
64638;HTU21D;51049;45.046;38.950;2023-02-28T14:19:36;10.78;54.56
64638;HTU21D;51049;45.046;38.950;2023-02-28T14:36:36;9.89;55.53
64638;HTU21D;51049;45.046;38.950;2023-02-28T14:39:16;9.76;55.56
64638;HTU21D;51049;45.046;38.950;2023-02-28T14:41:49;9.65;55.62
64638;HTU21D;51049;45.046;38.950;2023-02-28T14:44:53;9.50;55.88
64638;HTU21D;51049;45.046;38.950;2023-02-28T14:47:33;9.37;55.92
64638;HTU21D;51049;45.046;38.950;2023-02-28T14:50:38;9.22;56.12
64638;HTU21D;51049;45.046;38.950;2023-02-28T14:53:21;9.12;56.27
64638;HTU21D;51049;45.046;38.950;2023-02-28T14:55:49;9.00;56.34
64638;HTU21D;51049;45.046;38.950;2023-02-28T14:58:36;8.88;56.56
64638;HTU21D;51049;45.046;38.950;2023-02-28T15:01:19;8.77;56.52
64638;HTU21D;51049;45.046;38.950;2023-02-28T15:03:46;8.67;56.58
64638;HTU21D;51049;45.046;38.950;2023-02-28T15:06:17;8.61;56.73
64638;HTU21D;51049;45.046;38.950;2023-02-28T15:08:46;8.52;56.81
64638;HTU21D;51049;45.046;38.950;2023-02-28T15:11:19;8.45;56.84
64638;HTU21D;51049;45.046;38.950;2023-02-28T15:13:59;8.36;56.85
64638;HTU21D;51049;45.046;38.950;2023-02-28T15:16:47;8.30;56.77
64638;HTU21D;51049;45.046;38.950;2023-02-28T15:19:24;8.26;56.80
64638;HTU21D;51049;45.046;38.950;2023-02-28T15:22:01;8.21;56.84
64638;HTU21D;51049;45.046;38.950;2023-02-28T15:24:42;8.16;56.93
64638;HTU21D;51049;45.046;38.950;2023-02-28T15:27:20;8.11;56.97
64638;HTU21D;51049;45.046;38.950;2023-02-28T15:29:49;8.05;57.02
64638;HTU21D;51049;45.046;38.950;2023-02-28T15:32:34;8.00;57.26
64638;HTU21D;51049;45.046;38.950;2023-02-28T15:35:28;7.90;57.51
64638;HTU21D;51049;45.046;38.950;2023-02-28T15:38:18;7.87;57.51
64638;HTU21D;51049;45.046;38.950;2023-02-28T15:41:20;7.84;57.48
64638;HTU21D;51049;45.046;38.950;2023-02-28T15:44:13;7.81;57.56
64638;HTU21D;51049;45.046;38.950;2023-02-28T15:46:45;7.77;57.52
64638;HTU21D;51049;45.046;38.950;2023-02-28T15:49:22;7.70;57.71
64638;HTU21D;51049;45.046;38.950;2023-02-28T15:52:08;7.62;57.78
64638;HTU21D;51049;45.046;38.950;2023-02-28T15:54:43;7.55;57.87
64638;HTU21D;51049;45.046;38.950;2023-02-28T16:00:35;7.42;58.14
64638;HTU21D;51049;45.046;38.950;2023-02-28T16:09:21;7.25;58.20
64638;HTU21D;51049;45.046;38.950;2023-02-28T16:11:52;7.18;58.26
64638;HTU21D;51049;45.046;38.950;2023-02-28T16:14:26;7.10;58.37
64638;HTU21D;51049;45.046;38.950;2023-02-28T16:17:03;6.97;58.57
64638;HTU21D;51049;45.046;38.950;2023-02-28T16:19:33;6.84;58.63
64638;HTU21D;51049;45.046;38.950;2023-02-28T16:22:00;6.73;58.70
64638;HTU21D;51049;45.046;38.950;2023-02-28T16:24:27;6.68;58.72
64638;HTU21D;51049;45.046;38.950;2023-02-28T16:26:57;6.64;58.74
64638;HTU21D;51049;45.046;38.950;2023-02-28T16:29:35;6.55;58.88
64638;HTU21D;51049;45.046;38.950;2023-02-28T16:36:06;6.39;58.86
64638;HTU21D;51049;45.046;38.950;2023-02-28T16:39:01;6.34;58.93
64638;HTU21D;51049;45.046;38.950;2023-02-28T16:41:30;6.28;58.87
64638;HTU21D;51049;45.046;38.950;2023-02-28T16:44:00;6.21;58.93
64638;HTU21D;51049;45.046;38.950;2023-02-28T16:46:32;6.14;59.02
64638;HTU21D;51049;45.046;38.950;2023-02-28T16:49:02;6.06;59.12
64638;HTU21D;51049;45.046;38.950;2023-02-28T16:51:34;5.99;59.24
64638;HTU21D;51049;45.046;38.950;2023-02-28T16:54:09;5.91;59.45
64638;HTU21D;51049;45.046;38.950;2023-02-28T16:56:41;5.82;59.57
64638;HTU21D;51049;45.046;38.950;2023-02-28T16:59:09;5.74;59.66
64638;HTU21D;51049;45.046;38.950;2023-02-28T17:01:39;5.67;59.75
64638;HTU21D;51049;45.046;38.950;2023-02-28T17:04:11;5.60;59.96
64638;HTU21D;51049;45.046;38.950;2023-02-28T17:06:39;5.55;60.05
64638;HTU21D;51049;45.046;38.950;2023-02-28T17:09:35;5.54;60.15
64638;HTU21D;51049;45.046;38.950;2023-02-28T17:12:19;5.56;59.96
64638;HTU21D;51049;45.046;38.950;2023-02-28T17:14:45;5.56;59.90
64638;HTU21D;51049;45.046;38.950;2023-02-28T17:17:23;5.54;59.90
64638;HTU21D;51049;45.046;38.950;2023-02-28T17:19:52;5.55;59.91
64638;HTU21D;51049;45.046;38.950;2023-02-28T17:22:18;5.53;59.89
64638;HTU21D;51049;45.046;38.950;2023-02-28T17:24:48;5.53;59.97
64638;HTU21D;51049;45.046;38.950;2023-02-28T17:27:17;5.48;60.05
64638;HTU21D;51049;45.046;38.950;2023-02-28T17:29:47;5.45;60.20
64638;HTU21D;51049;45.046;38.950;2023-02-28T17:32:29;5.42;60.26
64638;HTU21D;51049;45.046;38.950;2023-02-28T17:35:01;5.39;60.31
64638;HTU21D;51049;45.046;38.950;2023-02-28T17:37:29;5.38;60.31
64638;HTU21D;51049;45.046;38.950;2023-02-28T17:39:56;5.37;60.41
64638;HTU21D;51049;45.046;38.950;2023-02-28T17:42:22;5.35;60.42
64638;HTU21D;51049;45.046;38.950;2023-02-28T17:44:48;5.37;60.42
64638;HTU21D;51049;45.046;38.950;2023-02-28T17:47:14;5.39;60.39
64638;HTU21D;51049;45.046;38.950;2023-02-28T17:49:40;5.41;60.36
64638;HTU21D;51049;45.046;38.950;2023-02-28T17:52:08;5.43;60.31
64638;HTU21D;51049;45.046;38.950;2023-02-28T17:54:34;5.45;60.32
64638;HTU21D;51049;45.046;38.950;2023-02-28T17:57:00;5.41;60.39
64638;HTU21D;51049;45.046;38.950;2023-02-28T17:59:29;5.39;60.49
64638;HTU21D;51049;45.046;38.950;2023-02-28T18:02:21;5.35;60.70
64638;HTU21D;51049;45.046;38.950;2023-02-28T18:05:00;5.32;60.69
64638;HTU21D;51049;45.046;38.950;2023-02-28T18:07:29;5.32;60.74
64638;HTU21D;51049;45.046;38.950;2023-02-28T18:09:56;5.28;60.64
64638;HTU21D;51049;45.046;38.950;2023-02-28T18:12:27;5.30;60.70
64638;HTU21D;51049;45.046;38.950;2023-02-28T18:14:58;5.30;60.76
64638;HTU21D;51049;45.046;38.950;2023-02-28T18:17:41;5.31;60.80
64638;HTU21D;51049;45.046;38.950;2023-02-28T18:20:17;5.28;60.81
64638;HTU21D;51049;45.046;38.950;2023-02-28T18:22:51;5.28;60.86
64638;HTU21D;51049;45.046;38.950;2023-02-28T18:26:00;5.30;60.97
64638;HTU21D;51049;45.046;38.950;2023-02-28T18:29:50;5.33;60.90
64638;HTU21D;51049;45.046;38.950;2023-02-28T18:32:35;5.33;60.75
64638;HTU21D;51049;45.046;38.950;2023-02-28T18:35:03;5.34;60.80
64638;HTU21D;51049;45.046;38.950;2023-02-28T18:37:29;5.37;60.84
64638;HTU21D;51049;45.046;38.950;2023-02-28T18:40:01;5.38;60.90
64638;HTU21D;51049;45.046;38.950;2023-02-28T18:42:29;5.37;61.02
64638;HTU21D;51049;45.046;38.950;2023-02-28T18:45:03;5.33;61.12
64638;HTU21D;51049;45.046;38.950;2023-02-28T18:47:42;5.30;61.22
64638;HTU21D;51049;45.046;38.950;2023-02-28T18:51:25;5.28;61.31
64638;HTU21D;51049;45.046;38.950;2023-02-28T18:57:49;5.26;61.17
64638;HTU21D;51049;45.046;38.950;2023-02-28T19:00:37;5.25;61.14
64638;HTU21D;51049;45.046;38.950;2023-02-28T19:03:22;5.25;61.13
64638;HTU21D;51049;45.046;38.950;2023-02-28T19:06:16;5.25;61.20
64638;HTU21D;51049;45.046;38.950;2023-02-28T19:08:45;5.27;61.21
64638;HTU21D;51049;45.046;38.950;2023-02-28T19:11:25;5.25;61.17
64638;HTU21D;51049;45.046;38.950;2023-02-28T19:13:51;5.23;61.18
64638;HTU21D;51049;45.046;38.950;2023-02-28T19:16:26;5.23;61.21
64638;HTU21D;51049;45.046;38.950;2023-02-28T19:19:16;5.23;61.37
64638;HTU21D;51049;45.046;38.950;2023-02-28T19:21:58;5.23;61.33
64638;HTU21D;51049;45.046;38.950;2023-02-28T19:24:27;5.20;61.38
64638;HTU21D;51049;45.046;38.950;2023-02-28T19:27:27;5.20;61.42
64638;HTU21D;51049;45.046;38.950;2023-02-28T19:29:58;5.20;61.45
64638;HTU21D;51049;45.046;38.950;2023-02-28T19:32:27;5.18;61.46
64638;HTU21D;51049;45.046;38.950;2023-02-28T19:34:53;5.17;61.50
64638;HTU21D;51049;45.046;38.950;2023-02-28T19:40:47;5.09;61.53
64638;HTU21D;51049;45.046;38.950;2023-02-28T19:43:13;5.07;61.67
64638;HTU21D;51049;45.046;38.950;2023-02-28T19:45:39;5.04;61.74
64638;HTU21D;51049;45.046;38.950;2023-02-28T19:48:05;4.98;61.79
64638;HTU21D;51049;45.046;38.950;2023-02-28T19:51:07;4.97;61.82
64638;HTU21D;51049;45.046;38.950;2023-02-28T19:53:38;4.96;61.76
64638;HTU21D;51049;45.046;38.950;2023-02-28T19:56:09;4.95;61.76
64638;HTU21D;51049;45.046;38.950;2023-02-28T19:58:42;4.94;61.77
64638;HTU21D;51049;45.046;38.950;2023-02-28T20:01:16;4.94;61.76
64638;HTU21D;51049;45.046;38.950;2023-02-28T20:03:46;4.94;61.78
64638;HTU21D;51049;45.046;38.950;2023-02-28T20:06:12;4.91;61.81
64638;HTU21D;51049;45.046;38.950;2023-02-28T20:08:46;4.90;61.85
64638;HTU21D;51049;45.046;38.950;2023-02-28T20:11:14;4.89;61.88
64638;HTU21D;51049;45.046;38.950;2023-02-28T20:16:39;4.87;61.94
64638;HTU21D;51049;45.046;38.950;2023-02-28T20:19:45;4.84;61.99
64638;HTU21D;51049;45.046;38.950;2023-02-28T20:22:16;4.84;62.00
64638;HTU21D;51049;45.046;38.950;2023-02-28T20:25:23;4.83;62.10
64638;HTU21D;51049;45.046;38.950;2023-02-28T20:30:47;4.78;62.16
64638;HTU21D;51049;45.046;38.950;2023-02-28T20:33:49;4.76;62.23
64638;HTU21D;51049;45.046;38.950;2023-02-28T20:36:21;4.74;62.28
64638;HTU21D;51049;45.046;38.950;2023-02-28T20:39:01;4.74;62.32
64638;HTU21D;51049;45.046;38.950;2023-02-28T20:41:30;4.73;62.39
64638;HTU21D;51049;45.046;38.950;2023-02-28T20:44:31;4.74;62.46
64638;HTU21D;51049;45.046;38.950;2023-02-28T20:47:38;4.77;62.28
64638;HTU21D;51049;45.046;38.950;2023-02-28T20:50:10;4.79;62.22
64638;HTU21D;51049;45.046;38.950;2023-02-28T20:56:36;4.79;62.13